X  Blizu METAR Podaci o vazduhoplovstvu     KOMA Eppley Airfield
Temperatura
54°F Temperatura
28°F Tačka Rose
38% Vlaga



Vetar
12 MPH
19 KM/H
5 M/S
10 KTS



160°
JJI
Trenutna situacija

Delimično oblačno Delimično oblačno
Vazdušni pritisak 1013.88 (hPa) - 29.94 (inHg)
Vidljivost 10 (Milje) - 16.1 (km)
Aerodrom
Aerodromski kod. KOMA

Lokacija: Eppley Airfield
Udaljenost: 20 (mi)

Metar:
KOMA 210052Z 16010KT 10SM SCT180 12/M02 A2994 RMK AO2 SLP143 T01171022

Vreme: 02-21-2024 00:52 CST